Time;durP1;ratioP1;P1;durP2;ratioP2;P2;SDS_P1;SDS_P2;PMS_P1;PMS_P2;Temp;Humidity;BMP_temperature;BMP_pressure;BME280_temperature;BME280_humidity;BME280_pressure;Samples;Min_cycle;Max_cycle;Signal;HPM_P1;HPM_P2
2021/11/01 00:00:13;;;;;;;2.92;2.13;;;19.10;64.90;;;;;;6200303;28;20045;-71
2021/11/01 00:03:15;;;;;;;2.60;1.80;;;19.10;65.40;;;;;;6200007;28;20030;-71
2021/11/01 00:06:16;;;;;;;2.55;2.00;;;19.00;65.90;;;;;;6200357;28;20034;-71
2021/11/01 00:09:17;;;;;;;5.20;2.35;;;18.90;65.80;;;;;;6199269;28;20092;-70
2021/11/01 00:12:18;;;;;;;3.05;1.90;;;19.00;66.20;;;;;;6199968;28;20038;-70
2021/11/01 00:15:19;;;;;;;3.67;2.30;;;18.90;66.40;;;;;;6198962;28;20116;-70
2021/11/01 00:18:20;;;;;;;2.95;1.90;;;18.90;66.60;;;;;;6199702;28;20065;-70
2021/11/01 00:21:22;;;;;;;7.70;1.90;;;18.90;66.60;;;;;;6200152;28;20026;-70
2021/11/01 00:24:22;;;;;;;2.05;1.67;;;18.90;66.30;;;;;;6200161;28;20035;-70
2021/11/01 00:27:23;;;;;;;7.47;1.90;;;19.00;66.10;;;;;;6201953;28;20081;-71
2021/11/01 00:30:24;;;;;;;4.90;1.58;;;19.10;66.00;;;;;;6204871;28;20045;-70
2021/11/01 00:33:25;;;;;;;2.83;1.95;;;19.10;65.70;;;;;;6204875;28;20344;-70
2021/11/01 00:36:26;;;;;;;3.05;1.88;;;19.20;65.60;;;;;;6204663;28;20038;-70
2021/11/01 00:39:28;;;;;;;4.55;1.70;;;19.20;65.20;;;;;;6187077;28;20100;-70
2021/11/01 00:42:29;;;;;;;1.90;1.50;;;19.30;65.00;;;;;;6204391;28;20042;-70
2021/11/01 00:45:31;;;;;;;3.38;1.77;;;19.40;64.80;;;;;;6204098;28;20278;-70
2021/11/01 00:48:32;;;;;;;2.28;1.60;;;19.40;64.80;;;;;;6202390;28;20031;-70
2021/11/01 00:51:40;;;;;;;3.42;1.85;;;19.40;64.60;;;;;;6203516;28;20371;-70
2021/11/01 00:54:43;;;;;;;4.82;1.88;;;19.40;64.50;;;;;;6202685;28;20042;-70
2021/11/01 00:57:44;;;;;;;4.63;1.90;;;19.40;64.40;;;;;;6204017;28;20034;-70
2021/11/01 01:00:45;;;;;;;2.28;1.70;;;19.40;64.30;;;;;;6204472;28;20089;-70
2021/11/01 01:03:47;;;;;;;4.03;1.77;;;19.40;64.40;;;;;;6203768;28;20031;-70
2021/11/01 01:06:48;;;;;;;2.20;1.70;;;19.40;64.40;;;;;;6203621;28;20045;-70
2021/11/01 01:09:49;;;;;;;10.38;1.70;;;19.40;64.50;;;;;;6202791;28;20042;-70
2021/11/01 01:12:50;;;;;;;3.67;2.10;;;19.40;64.60;;;;;;6203900;28;20399;-70
2021/11/01 01:18:58;;;;;;;5.05;2.17;;;19.40;65.00;;;;;;6202057;28;20412;-70
2021/11/01 01:22:19;;;;;;;3.45;2.08;;;19.30;65.10;;;;;;6202406;28;20046;-70
2021/11/01 01:25:26;;;;;;;2.83;1.88;;;19.30;65.40;;;;;;6202659;28;20113;-70
2021/11/01 01:28:41;;;;;;;2.95;1.98;;;19.20;65.60;;;;;;6203685;28;20042;-70
2021/11/01 01:31:42;;;;;;;5.90;2.60;;;19.10;65.70;;;;;;6201278;28;20037;-70
2021/11/01 01:34:43;;;;;;;11.15;2.08;;;19.10;66.10;;;;;;6210553;28;20490;-71
2021/11/01 01:37:44;;;;;;;3.13;1.70;;;19.00;66.30;;;;;;6202093;28;20045;-70
2021/11/01 01:40:45;;;;;;;6.82;1.90;;;19.00;66.70;;;;;;6201931;28;20436;-70
2021/11/01 01:43:55;;;;;;;3.70;2.05;;;18.90;67.00;;;;;;6218318;28;20057;-71
2021/11/01 01:46:56;;;;;;;3.58;1.92;;;18.90;68.10;;;;;;6201429;28;20042;-70
2021/11/01 01:49:57;;;;;;;3.13;1.92;;;18.90;67.30;;;;;;6202169;28;20094;-70
2021/11/01 01:52:58;;;;;;;2.65;1.60;;;18.90;67.30;;;;;;6201653;28;20049;-70
2021/11/01 01:55:59;;;;;;;3.40;1.83;;;18.90;67.50;;;;;;6202785;28;20069;-70
2021/11/01 01:59:03;;;;;;;2.40;1.50;;;18.80;67.50;;;;;;6201386;28;20038;-70
2021/11/01 02:02:06;;;;;;;2.85;1.60;;;18.90;67.70;;;;;;6202304;28;20519;-70
2021/11/01 02:05:07;;;;;;;7.72;1.50;;;18.90;68.50;;;;;;6201632;28;20053;-70
2021/11/01 02:08:12;;;;;;;3.03;1.30;;;18.90;67.30;;;;;;6201944;28;20462;-69
2021/11/01 02:11:17;;;;;;;1.92;1.02;;;18.80;67.20;;;;;;6202423;28;20046;-70
2021/11/01 02:14:22;;;;;;;4.35;1.40;;;18.80;67.10;;;;;;6202576;28;20039;-70
2021/11/01 02:17:29;;;;;;;2.80;1.20;;;18.70;67.00;;;;;;6202398;28;20030;-70
2021/11/01 02:20:35;;;;;;;2.22;1.10;;;18.70;66.90;;;;;;6200332;28;20030;-70
2021/11/01 02:23:43;;;;;;;1.40;1.10;;;18.70;66.90;;;;;;6202324;28;20035;-70
2021/11/01 02:26:45;;;;;;;3.25;1.10;;;18.70;66.70;;;;;;6202052;28;20031;-70
2021/11/01 02:29:47;;;;;;;1.45;0.95;;;18.70;66.70;;;;;;6200923;28;20038;-70
2021/11/01 02:32:49;;;;;;;2.85;1.10;;;18.60;66.70;;;;;;6201069;28;20038;-70
2021/11/01 02:35:52;;;;;;;4.82;1.38;;;18.60;66.80;;;;;;6201880;28;20034;-70
2021/11/01 02:38:56;;;;;;;4.13;1.25;;;18.50;67.00;;;;;;6201559;28;20050;-70
2021/11/01 02:41:58;;;;;;;3.50;1.38;;;18.50;67.20;;;;;;6200578;28;20050;-70
2021/11/01 02:45:02;;;;;;;5.30;1.42;;;18.50;67.30;;;;;;6199505;28;20124;-69
2021/11/01 02:48:03;;;;;;;3.05;1.27;;;18.40;67.40;;;;;;6201650;28;20490;-69
2021/11/01 02:51:04;;;;;;;3.08;1.15;;;18.40;67.60;;;;;;6183575;28;20054;-69
2021/11/01 02:54:06;;;;;;;2.53;1.40;;;18.40;67.70;;;;;;6200209;28;20049;-69
2021/11/01 02:57:07;;;;;;;1.50;1.02;;;18.40;67.70;;;;;;6201210;28;20035;-69
2021/11/01 03:00:10;;;;;;;2.75;1.30;;;18.40;67.80;;;;;;6201376;28;20100;-70
2021/11/01 03:03:11;;;;;;;5.03;1.83;;;18.40;67.90;;;;;;6200297;28;20038;-69
2021/11/01 03:06:16;;;;;;;4.30;1.73;;;18.40;67.90;;;;;;6200320;28;20448;-70
2021/11/01 03:09:18;;;;;;;2.60;1.52;;;18.40;67.90;;;;;;6200021;28;20104;-71
2021/11/01 03:12:24;;;;;;;7.25;1.73;;;18.40;68.30;;;;;;6200004;28;20476;-70
2021/11/01 03:15:25;;;;;;;3.13;1.70;;;18.40;68.90;;;;;;6200923;28;20039;-70
2021/11/01 03:18:54;;;;;;;7.45;1.80;;;18.30;69.00;;;;;;6200414;28;20041;-70
2021/11/01 03:22:03;;;;;;;2.25;1.35;;;18.30;69.20;;;;;;6195918;28;20038;-70
2021/11/01 03:25:11;;;;;;;3.08;1.73;;;18.30;69.50;;;;;;6197579;28;20030;-70
2021/11/01 03:28:13;;;;;;;2.78;1.88;;;18.40;69.80;;;;;;6194612;28;20070;-70
2021/11/01 03:31:15;;;;;;;7.70;1.65;;;18.40;69.90;;;;;;6196059;28;20447;-71
2021/11/01 03:34:18;;;;;;;2.10;1.27;;;18.30;70.10;;;;;;6197144;28;20088;-70
2021/11/01 03:37:20;;;;;;;4.38;2.13;;;18.30;70.40;;;;;;6197512;28;20479;-70
2021/11/01 03:40:22;;;;;;;2.28;1.40;;;18.40;70.70;;;;;;6195976;28;20057;-70
2021/11/01 03:43:28;;;;;;;4.75;1.90;;;18.30;70.70;;;;;;6202761;28;20034;-70
2021/11/01 03:46:38;;;;;;;4.40;1.90;;;18.30;70.60;;;;;;6197341;28;20030;-70
2021/11/01 03:49:47;;;;;;;1.85;1.30;;;18.30;70.60;;;;;;6196450;28;20039;-70
2021/11/01 03:52:49;;;;;;;3.13;1.80;;;18.30;70.60;;;;;;6197117;28;20042;-70
2021/11/01 03:55:50;;;;;;;3.45;1.55;;;18.30;70.60;;;;;;6195955;28;20042;-70
2021/11/01 03:58:52;;;;;;;2.80;1.70;;;18.30;70.60;;;;;;6197059;28;20038;-70
2021/11/01 04:01:54;;;;;;;3.00;1.73;;;18.30;70.50;;;;;;6195669;28;20072;-70
2021/11/01 04:04:54;;;;;;;2.38;1.58;;;18.30;70.50;;;;;;6196662;28;20486;-70
2021/11/01 04:07:56;;;;;;;4.50;1.88;;;18.30;70.60;;;;;;6195763;28;20046;-70
2021/11/01 04:10:58;;;;;;;4.80;1.58;;;18.30;70.60;;;;;;6196499;28;20069;-69
2021/11/01 04:14:02;;;;;;;3.15;1.80;;;18.20;70.80;;;;;;6197821;28;20054;-69
2021/11/01 04:17:09;;;;;;;3.63;2.03;;;18.20;70.90;;;;;;6196649;28;20033;-69
2021/11/01 04:23:21;;;;;;;;;;;18.20;70.80;;;;;;6198243;28;20034;-69
2021/11/01 04:26:23;;;;;;;2.67;1.58;;;18.20;70.80;;;;;;6198930;28;20311;-69
2021/11/01 04:29:26;;;;;;;1.20;0.82;;;18.20;70.60;;;;;;6197515;28;20042;-69
2021/11/01 04:32:38;;;;;;;2.97;0.50;;;18.20;70.80;;;;;;6198424;28;20125;-69
2021/11/01 04:35:40;;;;;;;0.75;0.35;;;18.10;71.00;;;;;;6197663;28;20121;-69
2021/11/01 04:42:10;;;;;;;0.00;0.00;;;17.80;71.00;;;;;;6198421;28;20105;-69
2021/11/01 04:54:57;;;;;;;2.63;0.10;;;17.20;70.80;;;;;;6194550;28;20058;-69
2021/11/01 04:57:58;;;;;;;0.00;0.00;;;17.10;70.80;;;;;;6178058;28;20034;-70
2021/11/01 05:00:59;;;;;;;0.00;0.00;;;17.00;71.00;;;;;;6195230;28;20050;-70
2021/11/01 05:04:05;;;;;;;0.00;0.00;;;16.90;70.80;;;;;;6196260;28;20092;-70
2021/11/01 05:07:07;;;;;;;0.60;0.20;;;16.90;71.00;;;;;;6195289;28;20039;-70
2021/11/01 05:10:13;;;;;;;0.00;0.00;;;16.80;70.90;;;;;;6194842;28;20482;-70
2021/11/01 05:13:17;;;;;;;0.00;0.00;;;16.80;70.80;;;;;;6198756;28;20113;-70
2021/11/01 05:16:30;;;;;;;0.20;0.10;;;16.80;70.80;;;;;;6200548;28;20043;-70
2021/11/01 05:19:35;;;;;;;0.00;0.00;;;16.70;70.70;;;;;;6198510;28;20134;-70
2021/11/01 05:25:49;;;;;;;1.15;0.05;;;16.60;70.60;;;;;;6198240;28;20102;-69
2021/11/01 05:28:57;;;;;;;0.05;0.00;;;16.50;70.50;;;;;;6202110;28;20043;-69
2021/11/01 05:32:09;;;;;;;1.00;0.10;;;16.50;70.90;;;;;;6201160;28;20034;-69
2021/11/01 05:35:10;;;;;;;0.00;0.00;;;16.40;71.00;;;;;;6201764;28;20038;-69
2021/11/01 05:38:11;;;;;;;0.10;0.00;;;16.30;71.10;;;;;;6200334;28;20073;-69
2021/11/01 05:41:12;;;;;;;0.20;0.10;;;16.30;71.20;;;;;;6201241;28;20451;-69
2021/11/01 05:44:13;;;;;;;0.08;0.08;;;16.30;71.20;;;;;;6184845;28;20117;-69
2021/11/01 05:47:14;;;;;;;0.00;0.00;;;16.30;71.30;;;;;;6201115;28;20038;-69
2021/11/01 05:50:15;;;;;;;0.00;0.00;;;16.30;71.30;;;;;;6201594;28;20053;-69
2021/11/01 05:53:16;;;;;;;0.00;0.00;;;16.30;71.30;;;;;;6200731;28;20027;-69
2021/11/01 05:56:33;;;;;;;1.30;0.00;;;16.30;71.20;;;;;;6200914;28;20048;-70
2021/11/01 06:03:21;;;;;;;0.00;0.00;;;16.30;71.10;;;;;;6147018;28;20146;-69
2021/11/01 06:15:43;;;;;;;0.10;0.10;;;16.40;71.30;;;;;;6148830;28;20584;-70
2021/11/01 06:18:44;;;;;;;0.30;0.20;;;16.50;71.40;;;;;;6116274;28;20035;-69
2021/11/01 06:21:48;;;;;;;3.08;0.10;;;16.50;71.40;;;;;;6148691;29;20362;-70
2021/11/01 06:24:53;;;;;;;0.05;0.05;;;16.50;71.40;;;;;;6147802;28;20035;-70
2021/11/01 06:27:55;;;;;;;1.73;0.30;;;16.60;71.20;;;;;;6148470;29;20039;-70
2021/11/01 06:30:59;;;;;;;0.10;0.10;;;16.60;70.80;;;;;;6148731;28;20034;-70
2021/11/01 06:50:21;;;;;;;2.45;1.33;;;16.90;71.40;;;;;;6145241;28;20035;-70
2021/11/01 06:57:17;;;;;;;3.90;1.38;;;16.90;71.80;;;;;;6147703;28;20035;-70
2021/11/01 07:17:00;;;;;;;1.08;0.50;;;17.00;71.70;;;;;;6122852;29;20048;-70
2021/11/01 07:20:20;;;;;;;0.45;0.28;;;16.90;71.80;;;;;;6140504;28;20054;-69
2021/11/01 08:23:42;;;;;;;5.95;0.77;;;17.00;71.40;;;;;;6195576;28;20042;-69
2021/11/01 09:06:59;;;;;;;1.23;0.43;;;17.00;71.20;;;;;;6099038;29;20127;-70
2021/11/01 09:18:43;;;;;;;0.60;0.50;;;17.00;71.30;;;;;;6040979;29;20041;-71
2021/11/01 09:20:13;;;;;;;1.85;0.57;;;17.00;71.60;;;;;;6086463;29;20040;-69
2021/11/01 09:23:40;;;;;;;2.90;0.63;;;16.90;71.70;;;;;;6103628;29;20040;-70
2021/11/01 09:26:44;;;;;;;1.75;0.73;;;16.90;71.90;;;;;;6101069;29;20420;-70
2021/11/01 09:39:41;;;;;;;0.68;0.40;;;16.70;72.30;;;;;;6084805;29;20355;-72
2021/11/01 09:42:49;;;;;;;0.32;0.28;;;16.70;72.40;;;;;;6163696;28;20052;-70
2021/11/01 09:46:03;;;;;;;1.02;0.25;;;16.70;72.40;;;;;;6196861;28;20352;-70
2021/11/01 09:49:13;;;;;;;0.40;0.40;;;16.70;72.40;;;;;;6199101;28;20050;-71
2021/11/01 09:52:14;;;;;;;2.47;0.32;;;16.70;72.40;;;;;;6198397;28;20046;-70
2021/11/01 09:55:34;;;;;;;2.08;0.63;;;16.70;72.50;;;;;;6214378;28;20467;-70
2021/11/01 10:01:56;;;;;;;2.83;0.80;;;16.90;72.40;;;;;;6196699;28;20062;-70
2021/11/01 10:04:58;;;;;;;0.47;0.22;;;17.00;72.30;;;;;;6197627;28;20571;-69
2021/11/01 10:07:59;;;;;;;1.83;1.15;;;17.00;72.00;;;;;;6197950;28;20030;-70
2021/11/01 10:11:00;;;;;;;2.10;1.58;;;17.00;71.90;;;;;;6198935;28;20096;-70
2021/11/01 10:14:04;;;;;;;0.38;0.30;;;17.10;71.90;;;;;;6197513;28;20038;-70
2021/11/01 10:20:35;;;;;;;0.10;0.10;;;17.30;71.50;;;;;;6196719;28;20038;-70
2021/11/01 10:23:44;;;;;;;1.27;0.60;;;17.40;71.10;;;;;;6196199;28;20052;-70
2021/11/01 10:26:46;;;;;;;5.00;2.13;;;17.40;70.50;;;;;;6197586;28;20031;-71
2021/11/01 10:29:54;;;;;;;1.83;1.10;;;17.50;70.20;;;;;;6213413;28;20479;-70
2021/11/01 10:32:58;;;;;;;1.55;0.57;;;17.50;69.90;;;;;;6197637;28;20056;-70
2021/11/01 10:35:59;;;;;;;0.60;0.38;;;17.60;69.60;;;;;;6198810;28;20031;-70
2021/11/01 10:39:19;;;;;;;0.60;0.50;;;17.70;69.20;;;;;;6198262;28;20046;-70
2021/11/01 10:42:30;;;;;;;0.55;0.38;;;17.80;68.90;;;;;;6196658;28;20042;-70
2021/11/01 10:46:08;;;;;;;1.35;0.50;;;17.90;68.60;;;;;;6196545;28;20054;-69
2021/11/01 11:12:18;;;;;;;0.22;0.20;;;19.80;61.90;;;;;;6195150;28;20424;-71
2021/11/01 11:15:20;;;;;;;0.20;0.20;;;19.90;60.70;;;;;;6196721;28;20076;-70
2021/11/01 11:44:06;;;;;;;1.90;0.80;;;20.90;57.20;;;;;;6195927;28;20348;-70
2021/11/01 11:50:21;;;;;;;0.80;0.32;;;20.90;56.80;;;;;;6196420;28;20048;-69
2021/11/01 11:53:26;;;;;;;4.55;0.75;;;20.80;56.80;;;;;;6195893;28;20031;-70
2021/11/01 11:56:34;;;;;;;2.92;0.57;;;20.80;56.70;;;;;;6197976;28;20057;-70
2021/11/01 11:59:38;;;;;;;4.50;2.37;;;20.80;56.30;;;;;;6197519;28;20044;-70
2021/11/01 12:02:44;;;;;;;8.10;2.50;;;20.80;56.30;;;;;;6197735;28;20038;-71
2021/11/01 12:06:00;;;;;;;3.08;1.73;;;20.90;56.30;;;;;;6196472;28;20525;-70
2021/11/01 12:09:09;;;;;;;3.65;0.90;;;21.00;56.10;;;;;;6197101;28;20105;-70
2021/11/01 12:18:35;;;;;;;10.07;2.83;;;21.20;54.00;;;;;;6196361;28;20104;-71
2021/11/01 12:21:40;;;;;;;5.80;2.80;;;21.10;53.40;;;;;;6195285;28;20042;-71
2021/11/01 12:24:50;;;;;;;5.57;2.58;;;21.00;52.90;;;;;;6199752;28;20352;-70
2021/11/01 12:28:00;;;;;;;1.63;1.33;;;20.80;53.10;;;;;;6201302;28;20045;-70
2021/11/01 12:31:03;;;;;;;0.95;0.60;;;20.60;53.50;;;;;;6200268;28;20042;-71
2021/11/01 12:37:15;;;;;;;0.68;0.40;;;20.70;53.70;;;;;;6200157;28;20063;-71
2021/11/01 12:40:31;;;;;;;0.40;0.20;;;20.90;53.50;;;;;;6199202;28;20046;-71
2021/11/01 12:44:29;;;;;;;1.08;0.55;;;21.00;53.00;;;;;;6197531;28;20041;-70
2021/11/01 12:48:08;;;;;;;1.50;0.30;;;21.10;52.70;;;;;;6197416;28;20034;-71
2021/11/01 12:57:25;;;;;;;0.70;0.40;;;21.30;51.90;;;;;;6199054;28;20129;-71
2021/11/01 13:00:43;;;;;;;0.65;0.32;;;21.30;51.60;;;;;;6198966;28;20034;-72
2021/11/01 13:04:20;;;;;;;0.20;0.20;;;21.30;51.40;;;;;;6182983;28;20042;-70
2021/11/01 13:10:38;;;;;;;0.43;0.30;;;21.10;51.10;;;;;;6197404;28;20038;-71
2021/11/01 13:14:16;;;;;;;0.98;0.20;;;21.00;51.20;;;;;;6199336;28;20038;-70
2021/11/01 13:20:23;;;;;;;0.30;0.30;;;20.90;51.20;;;;;;6195945;28;20109;-71
2021/11/01 13:23:29;;;;;;;0.20;0.20;;;20.90;51.30;;;;;;6182854;28;20038;-70
2021/11/01 13:36:45;;;;;;;0.95;0.40;;;20.60;52.60;;;;;;6197327;28;20456;-70
2021/11/01 13:39:57;;;;;;;1.35;0.38;;;20.50;52.90;;;;;;6198645;28;20050;-70
2021/11/01 13:42:59;;;;;;;1.02;0.63;;;20.40;53.30;;;;;;6198023;28;20153;-71
2021/11/01 13:46:01;;;;;;;2.75;0.50;;;20.30;53.60;;;;;;6199705;28;20058;-71
2021/11/01 13:49:03;;;;;;;0.95;0.40;;;20.20;53.70;;;;;;6198299;28;20049;-70
2021/11/01 13:52:34;;;;;;;1.60;1.00;;;20.10;53.70;;;;;;6199327;28;20464;-72
2021/11/01 13:59:08;;;;;;;0.85;0.40;;;19.70;54.90;;;;;;6190243;28;20462;-71
2021/11/01 14:28:53;;;;;;;1.05;0.20;;;17.90;56.00;;;;;;6203131;28;20421;-70
2021/11/01 16:19:53;;;;;;;0.50;0.32;;;17.20;57.70;;;;;;6189449;28;20026;-70
2021/11/01 16:23:29;;;;;;;1.58;0.70;;;17.20;57.90;;;;;;6216602;28;20053;-70
2021/11/01 16:29:20;;;;;;;0.98;0.60;;;17.20;58.10;;;;;;6200606;28;20089;-70
2021/11/01 16:35:32;;;;;;;4.22;0.75;;;17.20;58.40;;;;;;6200908;28;20448;-70
2021/11/01 16:38:42;;;;;;;0.65;0.50;;;17.20;58.50;;;;;;6200428;28;20026;-71
2021/11/01 16:41:48;;;;;;;1.83;0.75;;;17.20;58.60;;;;;;6200643;28;20059;-70
2021/11/01 16:44:49;;;;;;;1.05;0.77;;;17.30;58.80;;;;;;6199274;28;20043;-71
2021/11/01 16:47:50;;;;;;;5.43;2.72;;;17.30;58.80;;;;;;6200471;28;20341;-70
2021/11/01 16:50:54;;;;;;;3.00;1.83;;;17.30;58.80;;;;;;6199334;28;20113;-71
2021/11/01 16:53:55;;;;;;;6.22;3.28;;;17.30;59.00;;;;;;6199126;28;20105;-70
2021/11/01 17:00:12;;;;;;;2.35;1.20;;;17.30;58.80;;;;;;6200470;28;20041;-72
2021/11/01 17:06:41;;;;;;;0.88;0.68;;;17.20;58.40;;;;;;6200684;28;20026;-71
2021/11/01 17:26:22;;;;;;;6.18;1.45;;;16.70;58.70;;;;;;6180988;28;20063;-70
2021/11/01 17:29:42;;;;;;;4.07;1.00;;;16.60;58.90;;;;;;6179532;28;20047;-71
2021/11/01 18:40:24;;;;;;;6.78;2.65;;;15.90;62.90;;;;;;6201629;28;20050;-70
2021/11/01 18:53:27;;;;;;;3.50;2.47;;;15.70;63.40;;;;;;6201369;28;20034;-71
2021/11/01 18:56:34;;;;;;;4.47;2.30;;;15.60;63.50;;;;;;6201815;28;20050;-70
2021/11/01 18:59:38;;;;;;;3.08;1.98;;;15.50;63.60;;;;;;6201432;28;20045;-70
2021/11/01 19:02:45;;;;;;;4.00;2.03;;;15.50;63.60;;;;;;6177403;28;20042;-71
2021/11/01 19:06:39;;;;;;;14.38;2.60;;;15.50;63.70;;;;;;6178389;28;20031;-71
2021/11/01 19:09:25;;;;;;;4.55;2.10;;;15.50;63.70;;;;;;6174388;28;20173;-70
2021/11/01 20:03:25;;;;;;;6.40;3.25;;;15.00;63.70;;;;;;6151196;28;20182;-71
2021/11/01 20:16:36;;;;;;;9.98;3.42;;;15.10;64.00;;;;;;6200243;28;20030;-70
2021/11/01 21:27:11;;;;;;;6.50;3.05;;;14.60;65.60;;;;;;6204896;28;20045;-70
2021/11/01 21:30:12;;;;;;;6.25;3.38;;;14.50;65.80;;;;;;6204798;28;20046;-70
2021/11/01 21:33:21;;;;;;;7.32;3.20;;;14.50;65.90;;;;;;6204045;28;20037;-71
2021/11/01 21:36:25;;;;;;;6.25;2.75;;;14.50;65.90;;;;;;6203942;28;20399;-72
2021/11/01 21:39:26;;;;;;;6.65;2.60;;;14.50;65.90;;;;;;6204356;28;20046;-71
2021/11/01 21:42:29;;;;;;;6.68;2.38;;;14.50;65.90;;;;;;6203374;28;20337;-70
2021/11/01 21:45:30;;;;;;;6.15;2.42;;;14.50;65.80;;;;;;6204523;28;20041;-71
2021/11/01 21:48:31;;;;;;;4.78;2.70;;;14.50;65.70;;;;;;6203777;28;20042;-70
2021/11/01 21:51:37;;;;;;;5.95;2.38;;;14.50;65.60;;;;;;6203648;28;20036;-71
2021/11/01 21:54:48;;;;;;;2.92;2.05;;;14.50;65.60;;;;;;6186939;28;20034;-70
2021/11/01 21:58:04;;;;;;;4.20;2.38;;;14.50;65.60;;;;;;6204889;28;20030;-70
2021/11/01 22:01:12;;;;;;;5.82;2.88;;;14.50;65.60;;;;;;6204194;28;20444;-70
2021/11/01 22:20:37;;;;;;;8.35;3.80;;;14.40;65.50;;;;;;6202208;28;20034;-71
2021/11/01 22:40:18;;;;;;;6.05;3.20;;;14.50;65.90;;;;;;6201461;28;20490;-70
2021/11/01 22:56:38;;;;;;;4.53;2.33;;;14.50;65.70;;;;;;6200915;28;20038;-70
2021/11/01 22:59:42;;;;;;;6.38;2.65;;;14.50;65.70;;;;;;6186388;28;20495;-70
2021/11/01 23:02:42;;;;;;;6.72;4.18;;;14.60;65.70;;;;;;6200339;28;20034;-71
2021/11/01 23:32:17;;;;;;;6.78;2.28;;;14.30;66.00;;;;;;6201488;28;20097;-70
2021/11/01 23:35:19;;;;;;;3.03;1.85;;;14.30;66.00;;;;;;6200117;28;20026;-70
2021/11/01 23:38:20;;;;;;;5.43;1.80;;;14.30;65.70;;;;;;6157624;28;1256760;-70
2021/11/01 23:41:21;;;;;;;6.93;2.42;;;14.30;66.40;;;;;;6201880;28;20034;-71
2021/11/01 23:44:22;;;;;;;4.55;2.03;;;14.30;65.40;;;;;;6200711;28;20041;-70
2021/11/01 23:47:24;;;;;;;5.05;1.92;;;14.30;65.30;;;;;;6201723;28;20092;-70
2021/11/01 23:50:29;;;;;;;3.72;2.30;;;14.30;65.00;;;;;;6200481;28;20026;-70
2021/11/01 23:56:37;;;;;;;5.40;2.15;;;14.30;65.10;;;;;;6200680;28;20034;-70
2021/11/01 23:59:38;;;;;;;7.10;1.80;;;14.30;65.10;;;;;;6200627;28;20037;-70
